sensor_id;sensor_type;location;lat;lon;timestamp;P1;durP1;ratioP1;P2;durP2;ratioP2
65613;SDS011;52283;49.292;10.572;2023-04-28T00:00:12;13.50;;;6.10;;
65613;SDS011;52283;49.292;10.572;2023-04-28T00:02:38;13.73;;;6.22;;
65613;SDS011;52283;49.292;10.572;2023-04-28T00:05:05;10.27;;;5.68;;
65613;SDS011;52283;49.292;10.572;2023-04-28T00:07:32;13.55;;;7.18;;
65613;SDS011;52283;49.292;10.572;2023-04-28T00:09:59;12.85;;;6.10;;
65613;SDS011;52283;49.292;10.572;2023-04-28T00:12:26;14.75;;;6.32;;
65613;SDS011;52283;49.292;10.572;2023-04-28T00:14:53;12.35;;;6.53;;
65613;SDS011;52283;49.292;10.572;2023-04-28T00:17:19;10.27;;;5.85;;
65613;SDS011;52283;49.292;10.572;2023-04-28T00:19:46;9.40;;;5.35;;
65613;SDS011;52283;49.292;10.572;2023-04-28T00:22:13;10.25;;;5.88;;
65613;SDS011;52283;49.292;10.572;2023-04-28T00:24:40;11.65;;;5.78;;
65613;SDS011;52283;49.292;10.572;2023-04-28T00:27:06;11.07;;;5.97;;
65613;SDS011;52283;49.292;10.572;2023-04-28T00:29:34;13.13;;;6.50;;
65613;SDS011;52283;49.292;10.572;2023-04-28T00:32:01;9.50;;;6.18;;
65613;SDS011;52283;49.292;10.572;2023-04-28T00:34:31;9.35;;;5.00;;
65613;SDS011;52283;49.292;10.572;2023-04-28T00:36:58;7.57;;;5.18;;
65613;SDS011;52283;49.292;10.572;2023-04-28T00:39:24;10.50;;;6.65;;
65613;SDS011;52283;49.292;10.572;2023-04-28T00:41:51;7.20;;;4.53;;
65613;SDS011;52283;49.292;10.572;2023-04-28T00:44:18;8.73;;;4.70;;
65613;SDS011;52283;49.292;10.572;2023-04-28T00:46:46;6.18;;;3.88;;
65613;SDS011;52283;49.292;10.572;2023-04-28T00:49:13;13.23;;;5.57;;
65613;SDS011;52283;49.292;10.572;2023-04-28T00:51:41;7.80;;;4.97;;
65613;SDS011;52283;49.292;10.572;2023-04-28T00:54:07;5.90;;;4.38;;
65613;SDS011;52283;49.292;10.572;2023-04-28T00:56:38;10.60;;;4.93;;
65613;SDS011;52283;49.292;10.572;2023-04-28T00:59:04;6.32;;;4.75;;
65613;SDS011;52283;49.292;10.572;2023-04-28T01:01:31;11.30;;;5.47;;
65613;SDS011;52283;49.292;10.572;2023-04-28T01:03:59;6.82;;;4.38;;
65613;SDS011;52283;49.292;10.572;2023-04-28T01:06:25;7.07;;;4.60;;
65613;SDS011;52283;49.292;10.572;2023-04-28T01:08:54;7.97;;;4.93;;
65613;SDS011;52283;49.292;10.572;2023-04-28T01:11:21;8.48;;;4.68;;
65613;SDS011;52283;49.292;10.572;2023-04-28T01:13:47;7.18;;;4.60;;
65613;SDS011;52283;49.292;10.572;2023-04-28T01:16:13;9.60;;;5.13;;
65613;SDS011;52283;49.292;10.572;2023-04-28T01:18:40;9.45;;;5.15;;
65613;SDS011;52283;49.292;10.572;2023-04-28T01:21:13;8.63;;;4.93;;
65613;SDS011;52283;49.292;10.572;2023-04-28T01:23:39;6.53;;;4.25;;
65613;SDS011;52283;49.292;10.572;2023-04-28T01:26:07;7.88;;;4.78;;
65613;SDS011;52283;49.292;10.572;2023-04-28T01:28:33;6.28;;;3.97;;
65613;SDS011;52283;49.292;10.572;2023-04-28T01:31:00;8.02;;;4.95;;
65613;SDS011;52283;49.292;10.572;2023-04-28T01:33:26;7.18;;;4.20;;
65613;SDS011;52283;49.292;10.572;2023-04-28T01:35:56;9.52;;;5.30;;
65613;SDS011;52283;49.292;10.572;2023-04-28T01:38:22;10.00;;;5.22;;
65613;SDS011;52283;49.292;10.572;2023-04-28T01:40:49;9.27;;;5.35;;
65613;SDS011;52283;49.292;10.572;2023-04-28T01:43:17;6.13;;;4.80;;
65613;SDS011;52283;49.292;10.572;2023-04-28T01:45:43;13.80;;;5.18;;
65613;SDS011;52283;49.292;10.572;2023-04-28T01:48:10;8.52;;;5.53;;
65613;SDS011;52283;49.292;10.572;2023-04-28T01:50:36;6.63;;;5.05;;
65613;SDS011;52283;49.292;10.572;2023-04-28T01:53:02;7.75;;;4.20;;
65613;SDS011;52283;49.292;10.572;2023-04-28T01:55:29;10.65;;;6.05;;
65613;SDS011;52283;49.292;10.572;2023-04-28T01:57:55;9.48;;;5.82;;
65613;SDS011;52283;49.292;10.572;2023-04-28T02:00:24;11.65;;;5.75;;
65613;SDS011;52283;49.292;10.572;2023-04-28T02:02:51;7.53;;;5.18;;
65613;SDS011;52283;49.292;10.572;2023-04-28T02:05:17;8.40;;;4.70;;
65613;SDS011;52283;49.292;10.572;2023-04-28T02:07:44;11.00;;;5.13;;
65613;SDS011;52283;49.292;10.572;2023-04-28T02:10:11;7.85;;;5.25;;
65613;SDS011;52283;49.292;10.572;2023-04-28T02:12:37;9.63;;;5.45;;
65613;SDS011;52283;49.292;10.572;2023-04-28T02:15:06;6.82;;;5.22;;
65613;SDS011;52283;49.292;10.572;2023-04-28T02:17:34;10.07;;;5.40;;
65613;SDS011;52283;49.292;10.572;2023-04-28T02:20:01;9.57;;;5.20;;
65613;SDS011;52283;49.292;10.572;2023-04-28T02:22:29;9.65;;;5.65;;
65613;SDS011;52283;49.292;10.572;2023-04-28T02:24:55;8.13;;;5.50;;
65613;SDS011;52283;49.292;10.572;2023-04-28T02:27:22;9.60;;;5.55;;
65613;SDS011;52283;49.292;10.572;2023-04-28T02:29:48;10.23;;;5.45;;
65613;SDS011;52283;49.292;10.572;2023-04-28T02:32:15;13.68;;;5.40;;
65613;SDS011;52283;49.292;10.572;2023-04-28T02:34:43;10.20;;;5.82;;
65613;SDS011;52283;49.292;10.572;2023-04-28T02:37:10;7.63;;;4.90;;
65613;SDS011;52283;49.292;10.572;2023-04-28T02:39:36;10.50;;;6.13;;
65613;SDS011;52283;49.292;10.572;2023-04-28T02:42:04;7.97;;;5.20;;
65613;SDS011;52283;49.292;10.572;2023-04-28T02:44:30;9.15;;;5.82;;
65613;SDS011;52283;49.292;10.572;2023-04-28T02:46:57;6.65;;;5.20;;
65613;SDS011;52283;49.292;10.572;2023-04-28T02:49:23;9.35;;;4.78;;
65613;SDS011;52283;49.292;10.572;2023-04-28T02:51:51;6.38;;;5.05;;
65613;SDS011;52283;49.292;10.572;2023-04-28T02:54:17;8.20;;;4.63;;
65613;SDS011;52283;49.292;10.572;2023-04-28T02:56:51;13.30;;;5.43;;
65613;SDS011;52283;49.292;10.572;2023-04-28T02:59:17;9.15;;;6.22;;
65613;SDS011;52283;49.292;10.572;2023-04-28T03:01:44;8.55;;;5.93;;
65613;SDS011;52283;49.292;10.572;2023-04-28T03:04:10;9.10;;;5.07;;
65613;SDS011;52283;49.292;10.572;2023-04-28T03:06:37;8.43;;;4.55;;
65613;SDS011;52283;49.292;10.572;2023-04-28T03:09:05;7.28;;;4.63;;
65613;SDS011;52283;49.292;10.572;2023-04-28T03:11:32;9.65;;;4.63;;
65613;SDS011;52283;49.292;10.572;2023-04-28T03:13:58;8.00;;;4.97;;
65613;SDS011;52283;49.292;10.572;2023-04-28T03:16:25;7.07;;;4.90;;
65613;SDS011;52283;49.292;10.572;2023-04-28T03:18:51;7.50;;;5.05;;
65613;SDS011;52283;49.292;10.572;2023-04-28T03:21:18;7.88;;;4.95;;
65613;SDS011;52283;49.292;10.572;2023-04-28T03:23:45;9.32;;;5.13;;
65613;SDS011;52283;49.292;10.572;2023-04-28T03:26:12;6.05;;;4.65;;
65613;SDS011;52283;49.292;10.572;2023-04-28T03:28:39;7.30;;;4.22;;
65613;SDS011;52283;49.292;10.572;2023-04-28T03:31:05;11.35;;;4.75;;
65613;SDS011;52283;49.292;10.572;2023-04-28T03:33:32;15.32;;;5.82;;
65613;SDS011;52283;49.292;10.572;2023-04-28T03:35:58;7.90;;;4.57;;
65613;SDS011;52283;49.292;10.572;2023-04-28T03:38:24;6.72;;;5.03;;
65613;SDS011;52283;49.292;10.572;2023-04-28T03:40:52;10.18;;;4.82;;
65613;SDS011;52283;49.292;10.572;2023-04-28T03:43:20;8.07;;;4.55;;
65613;SDS011;52283;49.292;10.572;2023-04-28T03:45:46;7.85;;;5.00;;
65613;SDS011;52283;49.292;10.572;2023-04-28T03:48:13;6.22;;;4.78;;
65613;SDS011;52283;49.292;10.572;2023-04-28T03:50:40;8.98;;;4.70;;
65613;SDS011;52283;49.292;10.572;2023-04-28T03:53:07;10.18;;;4.70;;
65613;SDS011;52283;49.292;10.572;2023-04-28T03:55:33;7.82;;;5.10;;
65613;SDS011;52283;49.292;10.572;2023-04-28T03:58:00;7.43;;;4.80;;
65613;SDS011;52283;49.292;10.572;2023-04-28T04:00:28;5.05;;;3.97;;
65613;SDS011;52283;49.292;10.572;2023-04-28T04:02:54;8.93;;;4.72;;
65613;SDS011;52283;49.292;10.572;2023-04-28T04:05:21;7.38;;;4.90;;
65613;SDS011;52283;49.292;10.572;2023-04-28T04:07:47;7.47;;;4.78;;
65613;SDS011;52283;49.292;10.572;2023-04-28T04:10:13;8.32;;;5.22;;
65613;SDS011;52283;49.292;10.572;2023-04-28T04:12:40;10.73;;;4.85;;
65613;SDS011;52283;49.292;10.572;2023-04-28T04:15:07;7.22;;;4.68;;
65613;SDS011;52283;49.292;10.572;2023-04-28T04:17:35;6.35;;;4.60;;
65613;SDS011;52283;49.292;10.572;2023-04-28T04:20:02;5.53;;;4.10;;
65613;SDS011;52283;49.292;10.572;2023-04-28T04:22:29;4.95;;;4.07;;
65613;SDS011;52283;49.292;10.572;2023-04-28T04:24:56;5.55;;;4.00;;
65613;SDS011;52283;49.292;10.572;2023-04-28T04:27:22;6.85;;;4.53;;
65613;SDS011;52283;49.292;10.572;2023-04-28T04:29:49;5.70;;;3.50;;
65613;SDS011;52283;49.292;10.572;2023-04-28T04:32:15;5.00;;;3.40;;
65613;SDS011;52283;49.292;10.572;2023-04-28T04:34:43;8.27;;;3.90;;
65613;SDS011;52283;49.292;10.572;2023-04-28T04:37:09;6.28;;;3.83;;
65613;SDS011;52283;49.292;10.572;2023-04-28T04:39:36;6.25;;;3.33;;
65613;SDS011;52283;49.292;10.572;2023-04-28T04:42:02;5.03;;;3.72;;
65613;SDS011;52283;49.292;10.572;2023-04-28T04:44:29;10.73;;;3.67;;
65613;SDS011;52283;49.292;10.572;2023-04-28T04:46:55;5.78;;;3.03;;
65613;SDS011;52283;49.292;10.572;2023-04-28T04:49:22;6.55;;;3.58;;
65613;SDS011;52283;49.292;10.572;2023-04-28T04:51:50;7.32;;;3.22;;
65613;SDS011;52283;49.292;10.572;2023-04-28T04:54:16;6.18;;;3.00;;
65613;SDS011;52283;49.292;10.572;2023-04-28T04:56:43;3.65;;;3.25;;
65613;SDS011;52283;49.292;10.572;2023-04-28T04:59:09;5.53;;;4.45;;
65613;SDS011;52283;49.292;10.572;2023-04-28T05:01:36;3.78;;;3.13;;
65613;SDS011;52283;49.292;10.572;2023-04-28T05:04:03;6.47;;;3.58;;
65613;SDS011;52283;49.292;10.572;2023-04-28T05:06:29;5.22;;;2.80;;
65613;SDS011;52283;49.292;10.572;2023-04-28T05:08:57;6.38;;;3.58;;
65613;SDS011;52283;49.292;10.572;2023-04-28T05:11:24;3.97;;;3.30;;
65613;SDS011;52283;49.292;10.572;2023-04-28T05:13:50;4.95;;;3.35;;
65613;SDS011;52283;49.292;10.572;2023-04-28T05:16:17;6.13;;;4.07;;
65613;SDS011;52283;49.292;10.572;2023-04-28T05:18:43;3.88;;;3.38;;
65613;SDS011;52283;49.292;10.572;2023-04-28T05:21:10;5.75;;;3.58;;
65613;SDS011;52283;49.292;10.572;2023-04-28T05:23:36;4.72;;;3.13;;
65613;SDS011;52283;49.292;10.572;2023-04-28T05:26:04;3.67;;;3.35;;
65613;SDS011;52283;49.292;10.572;2023-04-28T05:28:31;5.45;;;3.65;;
65613;SDS011;52283;49.292;10.572;2023-04-28T05:30:58;6.00;;;3.90;;
65613;SDS011;52283;49.292;10.572;2023-04-28T05:33:24;5.57;;;4.45;;
65613;SDS011;52283;49.292;10.572;2023-04-28T05:35:51;5.97;;;3.78;;
65613;SDS011;52283;49.292;10.572;2023-04-28T05:38:17;7.20;;;3.88;;
65613;SDS011;52283;49.292;10.572;2023-04-28T05:40:44;5.13;;;3.65;;
65613;SDS011;52283;49.292;10.572;2023-04-28T05:43:12;5.78;;;3.55;;
65613;SDS011;52283;49.292;10.572;2023-04-28T05:45:38;5.15;;;3.72;;
65613;SDS011;52283;49.292;10.572;2023-04-28T05:48:05;7.30;;;4.68;;
65613;SDS011;52283;49.292;10.572;2023-04-28T05:50:31;5.45;;;4.28;;
65613;SDS011;52283;49.292;10.572;2023-04-28T05:52:58;7.07;;;4.13;;
65613;SDS011;52283;49.292;10.572;2023-04-28T05:55:24;7.43;;;4.15;;
65613;SDS011;52283;49.292;10.572;2023-04-28T05:57:52;8.57;;;4.70;;
65613;SDS011;52283;49.292;10.572;2023-04-28T06:00:20;8.27;;;4.47;;
65613;SDS011;52283;49.292;10.572;2023-04-28T06:02:46;6.25;;;4.28;;
65613;SDS011;52283;49.292;10.572;2023-04-28T06:05:13;6.40;;;3.85;;
65613;SDS011;52283;49.292;10.572;2023-04-28T06:07:39;9.35;;;4.80;;
65613;SDS011;52283;49.292;10.572;2023-04-28T06:10:06;6.45;;;4.20;;
65613;SDS011;52283;49.292;10.572;2023-04-28T06:12:33;5.18;;;4.68;;
65613;SDS011;52283;49.292;10.572;2023-04-28T06:15:00;7.85;;;4.10;;
65613;SDS011;52283;49.292;10.572;2023-04-28T06:17:28;7.57;;;4.25;;
65613;SDS011;52283;49.292;10.572;2023-04-28T06:19:56;9.00;;;4.53;;
65613;SDS011;52283;49.292;10.572;2023-04-28T06:22:23;7.53;;;4.47;;
65613;SDS011;52283;49.292;10.572;2023-04-28T06:24:50;8.57;;;4.43;;
65613;SDS011;52283;49.292;10.572;2023-04-28T06:27:16;6.90;;;4.65;;
65613;SDS011;52283;49.292;10.572;2023-04-28T06:29:43;6.50;;;3.85;;
65613;SDS011;52283;49.292;10.572;2023-04-28T06:32:09;7.57;;;4.68;;
65613;SDS011;52283;49.292;10.572;2023-04-28T06:34:37;6.78;;;4.85;;
65613;SDS011;52283;49.292;10.572;2023-04-28T06:37:03;6.32;;;3.85;;
65613;SDS011;52283;49.292;10.572;2023-04-28T06:39:30;5.93;;;4.15;;
65613;SDS011;52283;49.292;10.572;2023-04-28T06:41:56;9.35;;;4.22;;
65613;SDS011;52283;49.292;10.572;2023-04-28T06:44:23;7.22;;;3.95;;
65613;SDS011;52283;49.292;10.572;2023-04-28T06:46:49;5.65;;;4.22;;
65613;SDS011;52283;49.292;10.572;2023-04-28T06:49:16;8.85;;;5.32;;
65613;SDS011;52283;49.292;10.572;2023-04-28T06:51:44;4.30;;;3.90;;
65613;SDS011;52283;49.292;10.572;2023-04-28T06:54:10;7.90;;;4.22;;
65613;SDS011;52283;49.292;10.572;2023-04-28T06:56:37;7.53;;;5.22;;
65613;SDS011;52283;49.292;10.572;2023-04-28T06:59:04;9.45;;;4.40;;
65613;SDS011;52283;49.292;10.572;2023-04-28T07:01:30;6.95;;;4.22;;
65613;SDS011;52283;49.292;10.572;2023-04-28T07:03:57;8.02;;;4.63;;
65613;SDS011;52283;49.292;10.572;2023-04-28T07:06:23;8.48;;;4.50;;
65613;SDS011;52283;49.292;10.572;2023-04-28T07:08:52;7.45;;;4.82;;
65613;SDS011;52283;49.292;10.572;2023-04-28T07:11:19;11.88;;;5.00;;
65613;SDS011;52283;49.292;10.572;2023-04-28T07:13:47;6.90;;;5.25;;
65613;SDS011;52283;49.292;10.572;2023-04-28T07:16:15;9.20;;;4.88;;
65613;SDS011;52283;49.292;10.572;2023-04-28T07:18:42;9.02;;;5.10;;
65613;SDS011;52283;49.292;10.572;2023-04-28T07:21:08;8.27;;;5.47;;
65613;SDS011;52283;49.292;10.572;2023-04-28T07:23:35;9.02;;;5.80;;
65613;SDS011;52283;49.292;10.572;2023-04-28T07:26:04;7.53;;;5.22;;
65613;SDS011;52283;49.292;10.572;2023-04-28T07:28:30;8.43;;;5.57;;
65613;SDS011;52283;49.292;10.572;2023-04-28T07:30:57;6.05;;;5.45;;
65613;SDS011;52283;49.292;10.572;2023-04-28T07:33:23;7.68;;;5.70;;
65613;SDS011;52283;49.292;10.572;2023-04-28T07:35:50;7.68;;;5.60;;
65613;SDS011;52283;49.292;10.572;2023-04-28T07:38:17;10.07;;;5.53;;
65613;SDS011;52283;49.292;10.572;2023-04-28T07:40:44;9.10;;;5.57;;
65613;SDS011;52283;49.292;10.572;2023-04-28T07:43:12;9.07;;;5.25;;
65613;SDS011;52283;49.292;10.572;2023-04-28T07:45:38;7.72;;;5.43;;
65613;SDS011;52283;49.292;10.572;2023-04-28T07:48:05;8.57;;;6.25;;
65613;SDS011;52283;49.292;10.572;2023-04-28T07:50:32;9.10;;;6.43;;
65613;SDS011;52283;49.292;10.572;2023-04-28T07:52:59;12.25;;;6.47;;
65613;SDS011;52283;49.292;10.572;2023-04-28T07:55:25;11.43;;;5.78;;
65613;SDS011;52283;49.292;10.572;2023-04-28T07:57:52;8.32;;;5.45;;
65613;SDS011;52283;49.292;10.572;2023-04-28T08:00:20;12.23;;;6.00;;
65613;SDS011;52283;49.292;10.572;2023-04-28T08:02:47;10.10;;;6.82;;
65613;SDS011;52283;49.292;10.572;2023-04-28T08:05:14;10.55;;;6.65;;
65613;SDS011;52283;49.292;10.572;2023-04-28T08:07:41;9.50;;;6.78;;
65613;SDS011;52283;49.292;10.572;2023-04-28T08:10:08;12.38;;;6.80;;
65613;SDS011;52283;49.292;10.572;2023-04-28T08:12:35;11.75;;;7.18;;
65613;SDS011;52283;49.292;10.572;2023-04-28T08:15:01;9.43;;;6.78;;
65613;SDS011;52283;49.292;10.572;2023-04-28T08:17:30;9.70;;;6.78;;
65613;SDS011;52283;49.292;10.572;2023-04-28T08:19:56;11.38;;;7.03;;
65613;SDS011;52283;49.292;10.572;2023-04-28T08:22:23;9.80;;;5.80;;
65613;SDS011;52283;49.292;10.572;2023-04-28T08:24:49;11.77;;;7.25;;
65613;SDS011;52283;49.292;10.572;2023-04-28T08:27:16;12.43;;;7.30;;
65613;SDS011;52283;49.292;10.572;2023-04-28T08:29:42;10.77;;;7.20;;
65613;SDS011;52283;49.292;10.572;2023-04-28T08:32:09;9.43;;;6.75;;
65613;SDS011;52283;49.292;10.572;2023-04-28T08:34:37;10.82;;;7.65;;
65613;SDS011;52283;49.292;10.572;2023-04-28T08:37:03;9.35;;;7.15;;
65613;SDS011;52283;49.292;10.572;2023-04-28T08:39:30;15.60;;;7.93;;
65613;SDS011;52283;49.292;10.572;2023-04-28T08:41:58;9.57;;;6.50;;
65613;SDS011;52283;49.292;10.572;2023-04-28T08:44:24;8.10;;;6.78;;
65613;SDS011;52283;49.292;10.572;2023-04-28T08:46:52;13.68;;;7.53;;
65613;SDS011;52283;49.292;10.572;2023-04-28T08:49:22;9.15;;;7.22;;
65613;SDS011;52283;49.292;10.572;2023-04-28T08:52:01;13.48;;;8.18;;
65613;SDS011;52283;49.292;10.572;2023-04-28T08:54:32;13.45;;;8.30;;
65613;SDS011;52283;49.292;10.572;2023-04-28T08:57:01;14.15;;;8.38;;
65613;SDS011;52283;49.292;10.572;2023-04-28T08:59:29;14.25;;;9.10;;
65613;SDS011;52283;49.292;10.572;2023-04-28T09:01:56;16.55;;;9.05;;
65613;SDS011;52283;49.292;10.572;2023-04-28T09:04:23;13.80;;;8.63;;
65613;SDS011;52283;49.292;10.572;2023-04-28T09:06:49;11.00;;;7.95;;
65613;SDS011;52283;49.292;10.572;2023-04-28T09:09:22;12.43;;;8.65;;
65613;SDS011;52283;49.292;10.572;2023-04-28T09:11:50;13.32;;;7.70;;
65613;SDS011;52283;49.292;10.572;2023-04-28T09:14:17;11.38;;;8.40;;
65613;SDS011;52283;49.292;10.572;2023-04-28T09:16:44;15.13;;;8.60;;
65613;SDS011;52283;49.292;10.572;2023-04-28T09:19:10;12.98;;;7.78;;
65613;SDS011;52283;49.292;10.572;2023-04-28T09:21:44;12.52;;;8.13;;
65613;SDS011;52283;49.292;10.572;2023-04-28T09:24:14;12.70;;;8.23;;
65613;SDS011;52283;49.292;10.572;2023-04-28T09:26:53;12.68;;;8.40;;
65613;SDS011;52283;49.292;10.572;2023-04-28T09:29:19;13.85;;;10.38;;
65613;SDS011;52283;49.292;10.572;2023-04-28T09:31:46;13.23;;;9.98;;
65613;SDS011;52283;49.292;10.572;2023-04-28T09:34:12;12.05;;;8.55;;
65613;SDS011;52283;49.292;10.572;2023-04-28T09:36:39;13.10;;;8.73;;
65613;SDS011;52283;49.292;10.572;2023-04-28T09:39:06;12.35;;;8.40;;
65613;SDS011;52283;49.292;10.572;2023-04-28T09:41:37;11.52;;;8.07;;
65613;SDS011;52283;49.292;10.572;2023-04-28T09:44:11;13.77;;;8.65;;
65613;SDS011;52283;49.292;10.572;2023-04-28T09:46:38;9.77;;;8.23;;
65613;SDS011;52283;49.292;10.572;2023-04-28T09:49:05;17.35;;;9.10;;
65613;SDS011;52283;49.292;10.572;2023-04-28T09:51:32;11.45;;;7.97;;
65613;SDS011;52283;49.292;10.572;2023-04-28T09:54:00;12.05;;;9.27;;
65613;SDS011;52283;49.292;10.572;2023-04-28T09:56:27;12.93;;;9.35;;
65613;SDS011;52283;49.292;10.572;2023-04-28T09:58:57;11.10;;;8.70;;
65613;SDS011;52283;49.292;10.572;2023-04-28T10:01:24;11.32;;;8.70;;
65613;SDS011;52283;49.292;10.572;2023-04-28T10:03:52;11.60;;;8.93;;
65613;SDS011;52283;49.292;10.572;2023-04-28T10:06:21;10.45;;;8.20;;
65613;SDS011;52283;49.292;10.572;2023-04-28T10:08:48;10.07;;;8.18;;
65613;SDS011;52283;49.292;10.572;2023-04-28T10:11:16;8.70;;;7.47;;
65613;SDS011;52283;49.292;10.572;2023-04-28T10:13:43;10.75;;;7.50;;
65613;SDS011;52283;49.292;10.572;2023-04-28T10:16:11;10.18;;;7.93;;
65613;SDS011;52283;49.292;10.572;2023-04-28T10:18:39;9.02;;;7.53;;
65613;SDS011;52283;49.292;10.572;2023-04-28T10:21:06;10.80;;;8.07;;
65613;SDS011;52283;49.292;10.572;2023-04-28T10:23:43;10.32;;;8.35;;
65613;SDS011;52283;49.292;10.572;2023-04-28T10:26:17;11.25;;;7.85;;
65613;SDS011;52283;49.292;10.572;2023-04-28T10:28:46;11.23;;;8.35;;
65613;SDS011;52283;49.292;10.572;2023-04-28T10:31:15;10.80;;;7.88;;
65613;SDS011;52283;49.292;10.572;2023-04-28T10:33:43;9.20;;;8.13;;
65613;SDS011;52283;49.292;10.572;2023-04-28T10:36:09;10.50;;;8.40;;
65613;SDS011;52283;49.292;10.572;2023-04-28T10:41:34;10.05;;;8.40;;
65613;SDS011;52283;49.292;10.572;2023-04-28T10:44:00;9.30;;;8.00;;
65613;SDS011;52283;49.292;10.572;2023-04-28T10:47:07;11.48;;;8.52;;
65613;SDS011;52283;49.292;10.572;2023-04-28T10:52:48;10.40;;;8.65;;
65613;SDS011;52283;49.292;10.572;2023-04-28T10:55:31;13.10;;;8.35;;
65613;SDS011;52283;49.292;10.572;2023-04-28T11:01:23;7.95;;;6.47;;
65613;SDS011;52283;49.292;10.572;2023-04-28T11:03:51;9.50;;;7.30;;
65613;SDS011;52283;49.292;10.572;2023-04-28T11:06:24;11.95;;;6.82;;
65613;SDS011;52283;49.292;10.572;2023-04-28T11:08:52;9.77;;;6.65;;
65613;SDS011;52283;49.292;10.572;2023-04-28T11:11:21;7.93;;;6.47;;
65613;SDS011;52283;49.292;10.572;2023-04-28T11:13:49;9.85;;;6.90;;
65613;SDS011;52283;49.292;10.572;2023-04-28T11:16:17;8.88;;;6.55;;
65613;SDS011;52283;49.292;10.572;2023-04-28T11:18:49;6.70;;;5.85;;
65613;SDS011;52283;49.292;10.572;2023-04-28T11:21:18;7.50;;;5.82;;
65613;SDS011;52283;49.292;10.572;2023-04-28T11:23:46;6.68;;;5.28;;
65613;SDS011;52283;49.292;10.572;2023-04-28T11:26:12;5.57;;;5.07;;
65613;SDS011;52283;49.292;10.572;2023-04-28T11:28:46;8.35;;;5.93;;
65613;SDS011;52283;49.292;10.572;2023-04-28T11:31:14;6.40;;;5.03;;
65613;SDS011;52283;49.292;10.572;2023-04-28T11:33:44;5.28;;;4.80;;
65613;SDS011;52283;49.292;10.572;2023-04-28T11:39:05;5.63;;;5.03;;
65613;SDS011;52283;49.292;10.572;2023-04-28T11:41:33;5.38;;;4.85;;
65613;SDS011;52283;49.292;10.572;2023-04-28T11:44:00;4.85;;;4.38;;
65613;SDS011;52283;49.292;10.572;2023-04-28T11:46:35;5.93;;;5.32;;
65613;SDS011;52283;49.292;10.572;2023-04-28T11:49:09;5.97;;;5.20;;
65613;SDS011;52283;49.292;10.572;2023-04-28T11:51:37;5.78;;;5.13;;
65613;SDS011;52283;49.292;10.572;2023-04-28T11:54:04;5.65;;;5.05;;
65613;SDS011;52283;49.292;10.572;2023-04-28T11:56:36;4.70;;;4.18;;
65613;SDS011;52283;49.292;10.572;2023-04-28T11:59:05;4.28;;;3.88;;
65613;SDS011;52283;49.292;10.572;2023-04-28T12:01:33;5.05;;;4.22;;
65613;SDS011;52283;49.292;10.572;2023-04-28T12:04:08;3.80;;;3.50;;
65613;SDS011;52283;49.292;10.572;2023-04-28T12:06:36;4.35;;;4.00;;
65613;SDS011;52283;49.292;10.572;2023-04-28T12:09:13;4.30;;;3.85;;
65613;SDS011;52283;49.292;10.572;2023-04-28T12:11:50;3.85;;;3.45;;
65613;SDS011;52283;49.292;10.572;2023-04-28T12:14:17;6.25;;;4.47;;
65613;SDS011;52283;49.292;10.572;2023-04-28T12:16:45;5.28;;;4.25;;
65613;SDS011;52283;49.292;10.572;2023-04-28T12:19:13;7.45;;;4.53;;
65613;SDS011;52283;49.292;10.572;2023-04-28T12:21:42;5.22;;;4.38;;
65613;SDS011;52283;49.292;10.572;2023-04-28T12:24:12;5.22;;;4.50;;
65613;SDS011;52283;49.292;10.572;2023-04-28T12:26:42;5.15;;;4.65;;
65613;SDS011;52283;49.292;10.572;2023-04-28T12:29:09;5.28;;;4.55;;
65613;SDS011;52283;49.292;10.572;2023-04-28T12:31:48;6.00;;;4.95;;
65613;SDS011;52283;49.292;10.572;2023-04-28T12:34:15;5.47;;;4.38;;
65613;SDS011;52283;49.292;10.572;2023-04-28T12:36:43;4.82;;;4.35;;
65613;SDS011;52283;49.292;10.572;2023-04-28T12:39:12;3.90;;;3.60;;
65613;SDS011;52283;49.292;10.572;2023-04-28T12:41:40;4.45;;;4.05;;
65613;SDS011;52283;49.292;10.572;2023-04-28T12:44:07;4.00;;;3.60;;
65613;SDS011;52283;49.292;10.572;2023-04-28T12:46:33;5.95;;;4.80;;
65613;SDS011;52283;49.292;10.572;2023-04-28T12:49:01;4.35;;;3.58;;
65613;SDS011;52283;49.292;10.572;2023-04-28T12:51:27;4.38;;;2.90;;
65613;SDS011;52283;49.292;10.572;2023-04-28T12:53:55;2.40;;;2.00;;
65613;SDS011;52283;49.292;10.572;2023-04-28T12:56:22;3.15;;;2.35;;
65613;SDS011;52283;49.292;10.572;2023-04-28T12:58:48;2.22;;;2.03;;
65613;SDS011;52283;49.292;10.572;2023-04-28T13:01:15;2.58;;;2.08;;
65613;SDS011;52283;49.292;10.572;2023-04-28T13:03:41;2.63;;;1.83;;
65613;SDS011;52283;49.292;10.572;2023-04-28T13:06:08;4.55;;;3.00;;
65613;SDS011;52283;49.292;10.572;2023-04-28T13:08:35;3.40;;;2.67;;
65613;SDS011;52283;49.292;10.572;2023-04-28T13:11:03;6.07;;;3.92;;
65613;SDS011;52283;49.292;10.572;2023-04-28T13:13:30;2.65;;;1.92;;
65613;SDS011;52283;49.292;10.572;2023-04-28T13:15:56;3.03;;;2.25;;
65613;SDS011;52283;49.292;10.572;2023-04-28T13:18:23;4.70;;;2.75;;
65613;SDS011;52283;49.292;10.572;2023-04-28T13:20:49;2.28;;;2.08;;
65613;SDS011;52283;49.292;10.572;2023-04-28T13:23:16;2.15;;;1.95;;
65613;SDS011;52283;49.292;10.572;2023-04-28T13:25:42;2.30;;;2.08;;
65613;SDS011;52283;49.292;10.572;2023-04-28T13:28:10;2.40;;;1.88;;
65613;SDS011;52283;49.292;10.572;2023-04-28T13:30:37;3.72;;;1.95;;
65613;SDS011;52283;49.292;10.572;2023-04-28T13:33:04;2.10;;;1.70;;
65613;SDS011;52283;49.292;10.572;2023-04-28T13:35:30;2.15;;;1.95;;
65613;SDS011;52283;49.292;10.572;2023-04-28T13:37:57;2.88;;;1.70;;
65613;SDS011;52283;49.292;10.572;2023-04-28T13:40:26;1.30;;;1.20;;
65613;SDS011;52283;49.292;10.572;2023-04-28T13:42:53;1.33;;;1.23;;
65613;SDS011;52283;49.292;10.572;2023-04-28T13:45:21;2.97;;;1.13;;
65613;SDS011;52283;49.292;10.572;2023-04-28T13:47:47;0.88;;;0.88;;
65613;SDS011;52283;49.292;10.572;2023-04-28T13:50:15;1.10;;;0.98;;
65613;SDS011;52283;49.292;10.572;2023-04-28T13:52:41;1.13;;;0.93;;
65613;SDS011;52283;49.292;10.572;2023-04-28T13:55:08;1.00;;;1.00;;
65613;SDS011;52283;49.292;10.572;2023-04-28T13:57:35;1.40;;;1.30;;
65613;SDS011;52283;49.292;10.572;2023-04-28T14:00:01;1.50;;;0.93;;
65613;SDS011;52283;49.292;10.572;2023-04-28T14:02:30;1.83;;;1.50;;
65613;SDS011;52283;49.292;10.572;2023-04-28T14:04:56;1.25;;;1.15;;
65613;SDS011;52283;49.292;10.572;2023-04-28T14:07:23;1.73;;;1.52;;
65613;SDS011;52283;49.292;10.572;2023-04-28T14:09:50;1.75;;;1.65;;
65613;SDS011;52283;49.292;10.572;2023-04-28T14:12:16;2.70;;;2.20;;
65613;SDS011;52283;49.292;10.572;2023-04-28T14:14:45;2.65;;;2.45;;
65613;SDS011;52283;49.292;10.572;2023-04-28T14:17:12;2.70;;;2.50;;
65613;SDS011;52283;49.292;10.572;2023-04-28T14:19:40;2.33;;;2.13;;
65613;SDS011;52283;49.292;10.572;2023-04-28T14:22:06;3.30;;;2.40;;
65613;SDS011;52283;49.292;10.572;2023-04-28T14:24:33;2.55;;;2.35;;
65613;SDS011;52283;49.292;10.572;2023-04-28T14:27:00;3.25;;;2.95;;
65613;SDS011;52283;49.292;10.572;2023-04-28T14:29:26;3.28;;;2.13;;
65613;SDS011;52283;49.292;10.572;2023-04-28T14:31:53;2.47;;;2.28;;
65613;SDS011;52283;49.292;10.572;2023-04-28T14:34:19;2.40;;;2.20;;
65613;SDS011;52283;49.292;10.572;2023-04-28T14:36:47;2.55;;;2.35;;
65613;SDS011;52283;49.292;10.572;2023-04-28T14:39:14;2.67;;;2.47;;
65613;SDS011;52283;49.292;10.572;2023-04-28T14:41:41;3.60;;;3.05;;
65613;SDS011;52283;49.292;10.572;2023-04-28T14:44:07;4.78;;;2.70;;